sensor_id;sensor_type;location;lat;lon;timestamp;P1;durP1;ratioP1;P2;durP2;ratioP2
23068;SDS011;11702;50.856;4.348;2022-12-11T00:00:48;21.20;;;11.75;;
23068;SDS011;11702;50.856;4.348;2022-12-11T00:03:14;19.85;;;11.90;;
23068;SDS011;11702;50.856;4.348;2022-12-11T00:05:41;27.20;;;13.23;;
23068;SDS011;11702;50.856;4.348;2022-12-11T00:08:07;22.00;;;12.07;;
23068;SDS011;11702;50.856;4.348;2022-12-11T00:10:33;24.27;;;13.23;;
23068;SDS011;11702;50.856;4.348;2022-12-11T00:12:59;23.35;;;13.30;;
23068;SDS011;11702;50.856;4.348;2022-12-11T00:15:24;24.83;;;12.88;;
23068;SDS011;11702;50.856;4.348;2022-12-11T00:17:50;22.73;;;12.65;;
23068;SDS011;11702;50.856;4.348;2022-12-11T00:20:16;25.38;;;12.38;;
23068;SDS011;11702;50.856;4.348;2022-12-11T00:22:41;23.50;;;12.07;;
23068;SDS011;11702;50.856;4.348;2022-12-11T00:25:07;27.38;;;12.93;;
23068;SDS011;11702;50.856;4.348;2022-12-11T00:27:33;22.00;;;11.57;;
23068;SDS011;11702;50.856;4.348;2022-12-11T00:29:58;21.25;;;11.55;;
23068;SDS011;11702;50.856;4.348;2022-12-11T00:32:24;23.73;;;13.45;;
23068;SDS011;11702;50.856;4.348;2022-12-11T00:34:50;22.42;;;11.82;;
23068;SDS011;11702;50.856;4.348;2022-12-11T00:37:16;22.95;;;11.73;;
23068;SDS011;11702;50.856;4.348;2022-12-11T00:39:41;20.65;;;12.05;;
23068;SDS011;11702;50.856;4.348;2022-12-11T00:42:07;21.88;;;11.35;;
23068;SDS011;11702;50.856;4.348;2022-12-11T00:44:33;22.42;;;12.73;;
23068;SDS011;11702;50.856;4.348;2022-12-11T00:46:59;24.75;;;13.25;;
23068;SDS011;11702;50.856;4.348;2022-12-11T00:49:25;23.73;;;13.32;;
23068;SDS011;11702;50.856;4.348;2022-12-11T00:51:50;22.25;;;12.23;;
23068;SDS011;11702;50.856;4.348;2022-12-11T00:54:16;24.98;;;13.45;;
23068;SDS011;11702;50.856;4.348;2022-12-11T00:56:42;24.50;;;13.10;;
23068;SDS011;11702;50.856;4.348;2022-12-11T00:59:08;22.38;;;13.18;;
23068;SDS011;11702;50.856;4.348;2022-12-11T01:01:33;26.60;;;13.45;;
23068;SDS011;11702;50.856;4.348;2022-12-11T01:03:59;23.38;;;12.60;;
23068;SDS011;11702;50.856;4.348;2022-12-11T01:06:25;24.52;;;13.30;;
23068;SDS011;11702;50.856;4.348;2022-12-11T01:08:52;27.02;;;13.95;;
23068;SDS011;11702;50.856;4.348;2022-12-11T01:11:38;23.67;;;13.25;;
23068;SDS011;11702;50.856;4.348;2022-12-11T01:14:05;25.27;;;13.18;;
23068;SDS011;11702;50.856;4.348;2022-12-11T01:16:31;26.30;;;13.43;;
23068;SDS011;11702;50.856;4.348;2022-12-11T01:18:57;28.38;;;13.15;;
23068;SDS011;11702;50.856;4.348;2022-12-11T01:21:22;24.50;;;13.82;;
23068;SDS011;11702;50.856;4.348;2022-12-11T01:23:49;23.88;;;13.07;;
23068;SDS011;11702;50.856;4.348;2022-12-11T01:26:15;25.15;;;12.63;;
23068;SDS011;11702;50.856;4.348;2022-12-11T01:28:41;24.13;;;12.55;;
23068;SDS011;11702;50.856;4.348;2022-12-11T01:31:08;24.63;;;13.18;;
23068;SDS011;11702;50.856;4.348;2022-12-11T01:33:35;23.65;;;14.23;;
23068;SDS011;11702;50.856;4.348;2022-12-11T01:36:05;23.75;;;13.25;;
23068;SDS011;11702;50.856;4.348;2022-12-11T01:38:35;24.05;;;13.60;;
23068;SDS011;11702;50.856;4.348;2022-12-11T01:41:01;23.60;;;12.63;;
23068;SDS011;11702;50.856;4.348;2022-12-11T01:43:27;26.73;;;14.20;;
23068;SDS011;11702;50.856;4.348;2022-12-11T01:45:53;25.30;;;13.13;;
23068;SDS011;11702;50.856;4.348;2022-12-11T01:48:20;26.20;;;13.60;;
23068;SDS011;11702;50.856;4.348;2022-12-11T01:50:59;26.83;;;13.52;;
23068;SDS011;11702;50.856;4.348;2022-12-11T01:53:31;26.58;;;13.60;;
23068;SDS011;11702;50.856;4.348;2022-12-11T01:55:59;28.52;;;13.77;;
23068;SDS011;11702;50.856;4.348;2022-12-11T01:58:28;25.08;;;13.45;;
23068;SDS011;11702;50.856;4.348;2022-12-11T02:00:57;25.90;;;14.18;;
23068;SDS011;11702;50.856;4.348;2022-12-11T02:03:25;26.25;;;14.10;;
23068;SDS011;11702;50.856;4.348;2022-12-11T02:05:50;23.70;;;13.60;;
23068;SDS011;11702;50.856;4.348;2022-12-11T02:08:16;26.63;;;14.75;;
23068;SDS011;11702;50.856;4.348;2022-12-11T02:10:47;26.33;;;14.57;;
23068;SDS011;11702;50.856;4.348;2022-12-11T02:13:38;27.30;;;14.15;;
23068;SDS011;11702;50.856;4.348;2022-12-11T02:16:13;31.27;;;14.90;;
23068;SDS011;11702;50.856;4.348;2022-12-11T02:19:15;25.58;;;13.85;;
23068;SDS011;11702;50.856;4.348;2022-12-11T02:21:53;27.30;;;14.15;;
23068;SDS011;11702;50.856;4.348;2022-12-11T02:27:22;33.65;;;14.80;;
23068;SDS011;11702;50.856;4.348;2022-12-11T02:37:38;25.15;;;12.93;;
23068;SDS011;11702;50.856;4.348;2022-12-11T02:40:08;26.75;;;14.00;;
23068;SDS011;11702;50.856;4.348;2022-12-11T02:42:36;33.42;;;15.32;;
23068;SDS011;11702;50.856;4.348;2022-12-11T02:45:04;28.65;;;15.60;;
23068;SDS011;11702;50.856;4.348;2022-12-11T02:47:32;26.65;;;12.77;;
23068;SDS011;11702;50.856;4.348;2022-12-11T02:49:59;32.35;;;14.80;;
23068;SDS011;11702;50.856;4.348;2022-12-11T02:52:27;25.10;;;13.73;;
23068;SDS011;11702;50.856;4.348;2022-12-11T02:54:56;29.48;;;14.88;;
23068;SDS011;11702;50.856;4.348;2022-12-11T02:57:35;25.52;;;14.85;;
23068;SDS011;11702;50.856;4.348;2022-12-11T03:00:07;24.42;;;13.38;;
23068;SDS011;11702;50.856;4.348;2022-12-11T03:02:33;27.30;;;14.27;;
23068;SDS011;11702;50.856;4.348;2022-12-11T03:05:00;25.17;;;13.70;;
23068;SDS011;11702;50.856;4.348;2022-12-11T03:07:27;29.40;;;14.65;;
23068;SDS011;11702;50.856;4.348;2022-12-11T03:09:56;28.13;;;15.63;;
23068;SDS011;11702;50.856;4.348;2022-12-11T03:12:23;34.03;;;16.67;;
23068;SDS011;11702;50.856;4.348;2022-12-11T03:17:23;29.13;;;15.43;;
23068;SDS011;11702;50.856;4.348;2022-12-11T03:19:59;27.13;;;14.82;;
23068;SDS011;11702;50.856;4.348;2022-12-11T03:25:56;26.95;;;15.05;;
23068;SDS011;11702;50.856;4.348;2022-12-11T03:28:28;30.08;;;15.88;;
23068;SDS011;11702;50.856;4.348;2022-12-11T03:31:22;32.08;;;15.43;;
23068;SDS011;11702;50.856;4.348;2022-12-11T03:33:50;31.60;;;17.10;;
23068;SDS011;11702;50.856;4.348;2022-12-11T03:36:21;35.03;;;16.52;;
23068;SDS011;11702;50.856;4.348;2022-12-11T03:38:53;33.58;;;16.63;;
23068;SDS011;11702;50.856;4.348;2022-12-11T03:41:23;29.67;;;15.55;;
23068;SDS011;11702;50.856;4.348;2022-12-11T03:43:51;35.55;;;15.75;;
23068;SDS011;11702;50.856;4.348;2022-12-11T03:46:21;30.67;;;16.50;;
23068;SDS011;11702;50.856;4.348;2022-12-11T03:48:52;29.70;;;15.27;;
23068;SDS011;11702;50.856;4.348;2022-12-11T03:51:20;36.13;;;17.00;;
23068;SDS011;11702;50.856;4.348;2022-12-11T03:53:48;33.15;;;15.80;;
23068;SDS011;11702;50.856;4.348;2022-12-11T03:56:14;31.10;;;16.08;;
23068;SDS011;11702;50.856;4.348;2022-12-11T03:58:41;31.98;;;17.33;;
23068;SDS011;11702;50.856;4.348;2022-12-11T04:01:10;31.80;;;15.27;;
23068;SDS011;11702;50.856;4.348;2022-12-11T04:03:36;34.40;;;16.63;;
23068;SDS011;11702;50.856;4.348;2022-12-11T04:06:02;33.88;;;16.30;;
23068;SDS011;11702;50.856;4.348;2022-12-11T04:08:27;30.95;;;16.00;;
23068;SDS011;11702;50.856;4.348;2022-12-11T04:10:53;31.67;;;17.38;;
23068;SDS011;11702;50.856;4.348;2022-12-11T04:13:37;30.20;;;16.58;;
23068;SDS011;11702;50.856;4.348;2022-12-11T04:16:04;31.83;;;16.25;;
23068;SDS011;11702;50.856;4.348;2022-12-11T04:18:31;32.97;;;17.00;;
23068;SDS011;11702;50.856;4.348;2022-12-11T04:21:15;33.92;;;16.80;;
23068;SDS011;11702;50.856;4.348;2022-12-11T04:24:00;41.85;;;18.33;;
23068;SDS011;11702;50.856;4.348;2022-12-11T04:26:44;39.65;;;17.85;;
23068;SDS011;11702;50.856;4.348;2022-12-11T04:29:11;39.03;;;18.88;;
23068;SDS011;11702;50.856;4.348;2022-12-11T04:31:37;40.70;;;18.33;;
23068;SDS011;11702;50.856;4.348;2022-12-11T04:34:03;40.22;;;18.23;;
23068;SDS011;11702;50.856;4.348;2022-12-11T04:36:29;40.60;;;18.55;;
23068;SDS011;11702;50.856;4.348;2022-12-11T04:38:54;34.58;;;18.10;;
23068;SDS011;11702;50.856;4.348;2022-12-11T04:41:20;38.92;;;18.25;;
23068;SDS011;11702;50.856;4.348;2022-12-11T04:43:45;36.92;;;17.50;;
23068;SDS011;11702;50.856;4.348;2022-12-11T04:46:15;38.30;;;17.95;;
23068;SDS011;11702;50.856;4.348;2022-12-11T04:48:43;35.20;;;16.40;;
23068;SDS011;11702;50.856;4.348;2022-12-11T04:51:08;38.22;;;18.20;;
23068;SDS011;11702;50.856;4.348;2022-12-11T04:53:35;41.05;;;19.05;;
23068;SDS011;11702;50.856;4.348;2022-12-11T04:56:03;36.17;;;18.20;;
23068;SDS011;11702;50.856;4.348;2022-12-11T04:58:29;35.17;;;17.27;;
23068;SDS011;11702;50.856;4.348;2022-12-11T05:00:55;35.35;;;17.83;;
23068;SDS011;11702;50.856;4.348;2022-12-11T05:03:21;37.38;;;18.08;;
23068;SDS011;11702;50.856;4.348;2022-12-11T05:05:47;37.72;;;17.23;;
23068;SDS011;11702;50.856;4.348;2022-12-11T05:08:15;39.42;;;18.35;;
23068;SDS011;11702;50.856;4.348;2022-12-11T05:10:41;36.28;;;17.40;;
23068;SDS011;11702;50.856;4.348;2022-12-11T05:13:07;37.60;;;18.00;;
23068;SDS011;11702;50.856;4.348;2022-12-11T05:15:32;38.83;;;17.92;;
23068;SDS011;11702;50.856;4.348;2022-12-11T05:17:58;33.42;;;18.30;;
23068;SDS011;11702;50.856;4.348;2022-12-11T05:20:23;39.20;;;17.33;;
23068;SDS011;11702;50.856;4.348;2022-12-11T05:22:49;32.63;;;17.58;;
23068;SDS011;11702;50.856;4.348;2022-12-11T05:25:14;33.35;;;17.35;;
23068;SDS011;11702;50.856;4.348;2022-12-11T05:27:40;36.63;;;17.45;;
23068;SDS011;11702;50.856;4.348;2022-12-11T05:30:06;35.38;;;17.05;;
23068;SDS011;11702;50.856;4.348;2022-12-11T05:32:32;37.75;;;17.65;;
23068;SDS011;11702;50.856;4.348;2022-12-11T05:34:58;39.40;;;18.90;;
23068;SDS011;11702;50.856;4.348;2022-12-11T05:37:23;34.40;;;17.17;;
23068;SDS011;11702;50.856;4.348;2022-12-11T05:39:49;36.10;;;16.33;;
23068;SDS011;11702;50.856;4.348;2022-12-11T05:42:14;34.05;;;17.60;;
23068;SDS011;11702;50.856;4.348;2022-12-11T05:44:40;36.03;;;18.33;;
23068;SDS011;11702;50.856;4.348;2022-12-11T05:47:05;36.70;;;18.25;;
23068;SDS011;11702;50.856;4.348;2022-12-11T05:49:31;36.05;;;19.02;;
23068;SDS011;11702;50.856;4.348;2022-12-11T05:51:57;37.25;;;17.15;;
23068;SDS011;11702;50.856;4.348;2022-12-11T05:54:22;35.88;;;17.98;;
23068;SDS011;11702;50.856;4.348;2022-12-11T05:56:48;43.00;;;18.13;;
23068;SDS011;11702;50.856;4.348;2022-12-11T05:59:15;34.70;;;18.27;;
23068;SDS011;11702;50.856;4.348;2022-12-11T06:01:41;37.53;;;18.60;;
23068;SDS011;11702;50.856;4.348;2022-12-11T06:04:08;37.83;;;19.13;;
23068;SDS011;11702;50.856;4.348;2022-12-11T06:06:35;38.17;;;18.45;;
23068;SDS011;11702;50.856;4.348;2022-12-11T06:09:02;35.67;;;18.08;;
23068;SDS011;11702;50.856;4.348;2022-12-11T06:11:30;39.45;;;17.88;;
23068;SDS011;11702;50.856;4.348;2022-12-11T06:13:57;35.00;;;18.63;;
23068;SDS011;11702;50.856;4.348;2022-12-11T06:16:23;37.75;;;19.25;;
23068;SDS011;11702;50.856;4.348;2022-12-11T06:18:50;37.65;;;18.67;;
23068;SDS011;11702;50.856;4.348;2022-12-11T06:21:20;34.55;;;18.33;;
23068;SDS011;11702;50.856;4.348;2022-12-11T06:23:49;38.67;;;17.75;;
23068;SDS011;11702;50.856;4.348;2022-12-11T06:26:16;33.60;;;18.05;;
23068;SDS011;11702;50.856;4.348;2022-12-11T06:28:43;38.70;;;19.10;;
23068;SDS011;11702;50.856;4.348;2022-12-11T06:31:10;40.30;;;18.30;;
23068;SDS011;11702;50.856;4.348;2022-12-11T06:36:06;41.67;;;17.88;;
23068;SDS011;11702;50.856;4.348;2022-12-11T06:38:36;37.10;;;18.52;;
23068;SDS011;11702;50.856;4.348;2022-12-11T06:41:04;39.20;;;18.80;;
23068;SDS011;11702;50.856;4.348;2022-12-11T06:43:32;41.67;;;17.90;;
23068;SDS011;11702;50.856;4.348;2022-12-11T06:46:05;35.80;;;17.65;;
23068;SDS011;11702;50.856;4.348;2022-12-11T06:48:33;39.70;;;18.55;;
23068;SDS011;11702;50.856;4.348;2022-12-11T06:51:04;36.70;;;17.80;;
23068;SDS011;11702;50.856;4.348;2022-12-11T06:53:32;37.15;;;17.65;;
23068;SDS011;11702;50.856;4.348;2022-12-11T06:56:07;39.45;;;18.50;;
23068;SDS011;11702;50.856;4.348;2022-12-11T06:58:37;38.97;;;18.23;;
23068;SDS011;11702;50.856;4.348;2022-12-11T07:01:10;36.67;;;18.30;;
23068;SDS011;11702;50.856;4.348;2022-12-11T07:03:41;36.67;;;17.67;;
23068;SDS011;11702;50.856;4.348;2022-12-11T07:06:08;40.47;;;18.48;;
23068;SDS011;11702;50.856;4.348;2022-12-11T07:08:34;44.58;;;18.17;;
23068;SDS011;11702;50.856;4.348;2022-12-11T07:11:07;37.90;;;18.15;;
23068;SDS011;11702;50.856;4.348;2022-12-11T07:13:35;29.48;;;16.88;;
23068;SDS011;11702;50.856;4.348;2022-12-11T07:16:03;38.10;;;18.65;;
23068;SDS011;11702;50.856;4.348;2022-12-11T07:18:34;36.67;;;17.63;;
23068;SDS011;11702;50.856;4.348;2022-12-11T07:21:12;39.30;;;17.35;;
23068;SDS011;11702;50.856;4.348;2022-12-11T07:23:38;35.35;;;17.27;;
23068;SDS011;11702;50.856;4.348;2022-12-11T07:26:06;37.03;;;16.08;;
23068;SDS011;11702;50.856;4.348;2022-12-11T07:28:34;34.80;;;17.67;;
23068;SDS011;11702;50.856;4.348;2022-12-11T07:31:04;34.15;;;17.25;;
23068;SDS011;11702;50.856;4.348;2022-12-11T07:33:34;35.95;;;16.63;;
23068;SDS011;11702;50.856;4.348;2022-12-11T07:36:03;35.08;;;16.20;;
23068;SDS011;11702;50.856;4.348;2022-12-11T07:38:30;35.42;;;17.02;;
23068;SDS011;11702;50.856;4.348;2022-12-11T07:41:01;33.30;;;16.13;;
23068;SDS011;11702;50.856;4.348;2022-12-11T07:43:32;42.15;;;17.80;;
23068;SDS011;11702;50.856;4.348;2022-12-11T07:46:02;35.33;;;16.67;;
23068;SDS011;11702;50.856;4.348;2022-12-11T07:48:29;36.42;;;16.50;;
23068;SDS011;11702;50.856;4.348;2022-12-11T07:50:55;34.65;;;16.17;;
23068;SDS011;11702;50.856;4.348;2022-12-11T07:53:31;34.90;;;16.05;;
23068;SDS011;11702;50.856;4.348;2022-12-11T07:55:57;36.97;;;17.90;;
23068;SDS011;11702;50.856;4.348;2022-12-11T07:58:23;37.80;;;18.38;;
23068;SDS011;11702;50.856;4.348;2022-12-11T08:00:49;36.75;;;18.05;;
23068;SDS011;11702;50.856;4.348;2022-12-11T08:03:15;40.25;;;18.13;;
23068;SDS011;11702;50.856;4.348;2022-12-11T08:05:46;36.13;;;17.63;;
23068;SDS011;11702;50.856;4.348;2022-12-11T08:08:13;35.67;;;17.15;;
23068;SDS011;11702;50.856;4.348;2022-12-11T08:10:39;35.85;;;16.90;;
23068;SDS011;11702;50.856;4.348;2022-12-11T08:13:05;34.13;;;17.77;;
23068;SDS011;11702;50.856;4.348;2022-12-11T08:15:30;38.53;;;17.05;;
23068;SDS011;11702;50.856;4.348;2022-12-11T08:17:56;35.13;;;17.48;;
23068;SDS011;11702;50.856;4.348;2022-12-11T08:20:22;33.72;;;16.33;;
23068;SDS011;11702;50.856;4.348;2022-12-11T08:22:47;37.90;;;17.30;;
23068;SDS011;11702;50.856;4.348;2022-12-11T08:25:13;35.67;;;17.73;;
23068;SDS011;11702;50.856;4.348;2022-12-11T08:27:38;36.17;;;16.63;;
23068;SDS011;11702;50.856;4.348;2022-12-11T08:30:04;36.35;;;16.90;;
23068;SDS011;11702;50.856;4.348;2022-12-11T08:32:32;36.60;;;16.70;;
23068;SDS011;11702;50.856;4.348;2022-12-11T08:35:00;38.45;;;17.70;;
23068;SDS011;11702;50.856;4.348;2022-12-11T08:37:33;34.60;;;17.10;;
23068;SDS011;11702;50.856;4.348;2022-12-11T08:39:59;35.50;;;16.05;;
23068;SDS011;11702;50.856;4.348;2022-12-11T08:42:25;31.92;;;15.77;;
23068;SDS011;11702;50.856;4.348;2022-12-11T08:44:50;34.28;;;16.52;;
23068;SDS011;11702;50.856;4.348;2022-12-11T08:47:16;29.88;;;14.70;;
23068;SDS011;11702;50.856;4.348;2022-12-11T08:49:42;30.38;;;14.75;;
23068;SDS011;11702;50.856;4.348;2022-12-11T08:52:09;30.95;;;15.05;;
23068;SDS011;11702;50.856;4.348;2022-12-11T08:54:38;29.70;;;14.95;;
23068;SDS011;11702;50.856;4.348;2022-12-11T08:57:03;28.38;;;14.38;;
23068;SDS011;11702;50.856;4.348;2022-12-11T08:59:29;32.40;;;16.15;;
23068;SDS011;11702;50.856;4.348;2022-12-11T09:01:55;32.60;;;14.82;;
23068;SDS011;11702;50.856;4.348;2022-12-11T09:04:21;31.20;;;15.63;;
23068;SDS011;11702;50.856;4.348;2022-12-11T09:06:47;31.33;;;15.93;;
23068;SDS011;11702;50.856;4.348;2022-12-11T09:09:13;30.02;;;14.27;;
23068;SDS011;11702;50.856;4.348;2022-12-11T09:11:39;29.67;;;15.18;;
23068;SDS011;11702;50.856;4.348;2022-12-11T09:14:05;31.40;;;14.18;;
23068;SDS011;11702;50.856;4.348;2022-12-11T09:16:31;27.75;;;13.80;;
23068;SDS011;11702;50.856;4.348;2022-12-11T09:18:58;30.08;;;13.85;;
23068;SDS011;11702;50.856;4.348;2022-12-11T09:21:25;26.58;;;13.73;;
23068;SDS011;11702;50.856;4.348;2022-12-11T09:23:53;27.15;;;13.57;;
23068;SDS011;11702;50.856;4.348;2022-12-11T09:26:20;28.52;;;14.10;;
23068;SDS011;11702;50.856;4.348;2022-12-11T09:28:46;28.85;;;14.00;;
23068;SDS011;11702;50.856;4.348;2022-12-11T09:31:13;24.77;;;13.13;;
23068;SDS011;11702;50.856;4.348;2022-12-11T09:33:41;30.65;;;13.85;;
23068;SDS011;11702;50.856;4.348;2022-12-11T09:36:07;26.95;;;14.27;;
23068;SDS011;11702;50.856;4.348;2022-12-11T09:38:33;25.77;;;13.68;;
23068;SDS011;11702;50.856;4.348;2022-12-11T09:47:20;29.80;;;14.73;;
23068;SDS011;11702;50.856;4.348;2022-12-11T09:50:02;33.47;;;15.10;;
23068;SDS011;11702;50.856;4.348;2022-12-11T09:56:15;28.05;;;14.07;;
23068;SDS011;11702;50.856;4.348;2022-12-11T09:59:05;26.55;;;14.23;;
23068;SDS011;11702;50.856;4.348;2022-12-11T10:01:34;27.35;;;13.82;;
23068;SDS011;11702;50.856;4.348;2022-12-11T10:07:12;33.17;;;14.80;;
23068;SDS011;11702;50.856;4.348;2022-12-11T10:13:47;30.05;;;14.38;;
23068;SDS011;11702;50.856;4.348;2022-12-11T10:17:27;30.10;;;14.55;;
23068;SDS011;11702;50.856;4.348;2022-12-11T10:19:32;31.40;;;13.82;;
23068;SDS011;11702;50.856;4.348;2022-12-11T10:21:58;30.55;;;14.27;;
23068;SDS011;11702;50.856;4.348;2022-12-11T10:24:39;32.67;;;15.25;;
23068;SDS011;11702;50.856;4.348;2022-12-11T10:27:22;32.13;;;15.35;;
23068;SDS011;11702;50.856;4.348;2022-12-11T10:30:06;31.40;;;15.30;;
23068;SDS011;11702;50.856;4.348;2022-12-11T10:35:25;34.08;;;15.75;;
23068;SDS011;11702;50.856;4.348;2022-12-11T10:40:41;33.28;;;15.95;;
23068;SDS011;11702;50.856;4.348;2022-12-11T10:43:10;39.28;;;16.67;;
23068;SDS011;11702;50.856;4.348;2022-12-11T10:45:36;32.13;;;15.52;;
23068;SDS011;11702;50.856;4.348;2022-12-11T10:48:08;34.47;;;15.77;;
23068;SDS011;11702;50.856;4.348;2022-12-11T10:50:35;32.50;;;14.95;;
23068;SDS011;11702;50.856;4.348;2022-12-11T10:53:02;33.20;;;14.38;;
23068;SDS011;11702;50.856;4.348;2022-12-11T10:55:42;33.25;;;14.90;;
23068;SDS011;11702;50.856;4.348;2022-12-11T10:58:13;33.83;;;14.52;;
23068;SDS011;11702;50.856;4.348;2022-12-11T11:00:43;32.25;;;15.52;;
23068;SDS011;11702;50.856;4.348;2022-12-11T11:03:20;35.97;;;15.80;;
23068;SDS011;11702;50.856;4.348;2022-12-11T11:05:48;33.15;;;15.27;;
23068;SDS011;11702;50.856;4.348;2022-12-11T11:08:27;41.58;;;16.40;;
23068;SDS011;11702;50.856;4.348;2022-12-11T11:11:01;33.60;;;15.50;;
23068;SDS011;11702;50.856;4.348;2022-12-11T11:13:27;33.03;;;14.73;;
23068;SDS011;11702;50.856;4.348;2022-12-11T11:16:05;32.50;;;14.20;;
23068;SDS011;11702;50.856;4.348;2022-12-11T11:19:31;29.60;;;14.65;;
23068;SDS011;11702;50.856;4.348;2022-12-11T11:21:57;31.02;;;13.77;;
23068;SDS011;11702;50.856;4.348;2022-12-11T11:24:53;30.48;;;13.15;;
23068;SDS011;11702;50.856;4.348;2022-12-11T11:30:01;25.77;;;12.05;;
23068;SDS011;11702;50.856;4.348;2022-12-11T11:32:36;26.08;;;11.80;;
23068;SDS011;11702;50.856;4.348;2022-12-11T11:37:42;25.13;;;12.40;;
23068;SDS011;11702;50.856;4.348;2022-12-11T11:40:12;26.83;;;11.40;;
23068;SDS011;11702;50.856;4.348;2022-12-11T11:43:04;27.08;;;12.07;;
23068;SDS011;11702;50.856;4.348;2022-12-11T11:45:39;26.95;;;11.65;;
23068;SDS011;11702;50.856;4.348;2022-12-11T11:51:03;24.70;;;11.23;;
23068;SDS011;11702;50.856;4.348;2022-12-11T11:53:49;23.33;;;10.95;;
23068;SDS011;11702;50.856;4.348;2022-12-11T11:56:18;27.13;;;11.75;;
23068;SDS011;11702;50.856;4.348;2022-12-11T11:58:58;32.30;;;12.65;;
23068;SDS011;11702;50.856;4.348;2022-12-11T12:01:47;26.58;;;12.07;;
23068;SDS011;11702;50.856;4.348;2022-12-11T12:04:14;28.13;;;11.90;;
23068;SDS011;11702;50.856;4.348;2022-12-11T12:17:54;25.90;;;11.60;;
23068;SDS011;11702;50.856;4.348;2022-12-11T12:34:09;22.40;;;10.48;;
23068;SDS011;11702;50.856;4.348;2022-12-11T12:39:48;27.45;;;11.70;;
23068;SDS011;11702;50.856;4.348;2022-12-11T12:42:29;25.17;;;12.50;;
23068;SDS011;11702;50.856;4.348;2022-12-11T12:47:47;25.00;;;11.98;;
23068;SDS011;11702;50.856;4.348;2022-12-11T12:50:16;28.65;;;12.43;;
23068;SDS011;11702;50.856;4.348;2022-12-11T12:52:45;31.35;;;13.60;;
23068;SDS011;11702;50.856;4.348;2022-12-11T12:57:57;28.27;;;13.35;;
23068;SDS011;11702;50.856;4.348;2022-12-11T13:03:14;30.30;;;13.82;;
23068;SDS011;11702;50.856;4.348;2022-12-11T13:05:54;29.77;;;13.57;;
23068;SDS011;11702;50.856;4.348;2022-12-11T13:08:41;32.70;;;13.77;;
23068;SDS011;11702;50.856;4.348;2022-12-11T13:11:15;31.17;;;13.85;;
23068;SDS011;11702;50.856;4.348;2022-12-11T13:13:45;28.17;;;10.82;;
23068;SDS011;11702;50.856;4.348;2022-12-11T13:16:26;31.98;;;15.23;;
23068;SDS011;11702;50.856;4.348;2022-12-11T13:19:15;31.10;;;14.25;;
23068;SDS011;11702;50.856;4.348;2022-12-11T13:21:56;31.67;;;14.52;;
23068;SDS011;11702;50.856;4.348;2022-12-11T13:26:50;34.05;;;14.77;;
23068;SDS011;11702;50.856;4.348;2022-12-11T13:29:33;34.83;;;14.48;;
23068;SDS011;11702;50.856;4.348;2022-12-11T13:32:18;36.65;;;15.95;;
23068;SDS011;11702;50.856;4.348;2022-12-11T13:34:55;36.28;;;15.68;;
23068;SDS011;11702;50.856;4.348;2022-12-11T13:37:24;33.20;;;14.55;;
23068;SDS011;11702;50.856;4.348;2022-12-11T13:39:55;32.28;;;14.27;;
23068;SDS011;11702;50.856;4.348;2022-12-11T13:42:30;37.13;;;16.73;;
23068;SDS011;11702;50.856;4.348;2022-12-11T13:45:03;36.83;;;15.40;;
23068;SDS011;11702;50.856;4.348;2022-12-11T13:47:29;36.08;;;15.65;;
23068;SDS011;11702;50.856;4.348;2022-12-11T13:50:01;34.92;;;15.93;;
23068;SDS011;11702;50.856;4.348;2022-12-11T13:52:51;38.00;;;17.30;;
23068;SDS011;11702;50.856;4.348;2022-12-11T13:55:22;40.70;;;15.93;;
23068;SDS011;11702;50.856;4.348;2022-12-11T13:57:56;33.40;;;15.48;;
23068;SDS011;11702;50.856;4.348;2022-12-11T14:00:23;35.53;;;16.38;;
23068;SDS011;11702;50.856;4.348;2022-12-11T14:02:53;39.88;;;14.98;;
23068;SDS011;11702;50.856;4.348;2022-12-11T14:07:48;45.33;;;19.10;;
23068;SDS011;11702;50.856;4.348;2022-12-11T14:10:18;39.63;;;17.65;;
23068;SDS011;11702;50.856;4.348;2022-12-11T14:13:05;35.20;;;16.05;;
23068;SDS011;11702;50.856;4.348;2022-12-11T14:15:37;37.55;;;18.10;;
23068;SDS011;11702;50.856;4.348;2022-12-11T14:18:12;42.08;;;16.20;;
23068;SDS011;11702;50.856;4.348;2022-12-11T14:20:42;34.63;;;15.55;;
23068;SDS011;11702;50.856;4.348;2022-12-11T14:23:18;40.92;;;18.27;;
23068;SDS011;11702;50.856;4.348;2022-12-11T14:25:52;42.60;;;18.17;;
23068;SDS011;11702;50.856;4.348;2022-12-11T14:28:23;43.85;;;18.52;;
23068;SDS011;11702;50.856;4.348;2022-12-11T14:30:54;41.65;;;17.67;;
23068;SDS011;11702;50.856;4.348;2022-12-11T14:33:26;42.60;;;16.50;;
23068;SDS011;11702;50.856;4.348;2022-12-11T14:35:56;40.83;;;17.65;;
23068;SDS011;11702;50.856;4.348;2022-12-11T14:38:23;39.45;;;17.00;;
23068;SDS011;11702;50.856;4.348;2022-12-11T14:40:55;37.97;;;17.10;;
23068;SDS011;11702;50.856;4.348;2022-12-11T14:43:28;36.78;;;17.27;;
23068;SDS011;11702;50.856;4.348;2022-12-11T14:46:00;40.03;;;17.98;;
23068;SDS011;11702;50.856;4.348;2022-12-11T14:48:34;33.53;;;15.95;;
23068;SDS011;11702;50.856;4.348;2022-12-11T14:51:09;40.50;;;17.83;;
23068;SDS011;11702;50.856;4.348;2022-12-11T14:53:39;31.40;;;14.32;;
23068;SDS011;11702;50.856;4.348;2022-12-11T14:56:12;36.58;;;16.70;;
23068;SDS011;11702;50.856;4.348;2022-12-11T14:58:50;29.50;;;14.85;;
23068;SDS011;11702;50.856;4.348;2022-12-11T15:01:31;36.33;;;15.93;;
23068;SDS011;11702;50.856;4.348;2022-12-11T15:04:06;29.17;;;13.98;;
23068;SDS011;11702;50.856;4.348;2022-12-11T15:06:50;33.22;;;16.77;;
23068;SDS011;11702;50.856;4.348;2022-12-11T15:09:35;31.77;;;15.10;;
23068;SDS011;11702;50.856;4.348;2022-12-11T15:12:12;30.77;;;14.52;;
23068;SDS011;11702;50.856;4.348;2022-12-11T15:14:41;28.13;;;13.93;;
23068;SDS011;11702;50.856;4.348;2022-12-11T15:17:12;34.40;;;15.23;;
23068;SDS011;11702;50.856;4.348;2022-12-11T15:19:39;26.48;;;13.18;;
23068;SDS011;11702;50.856;4.348;2022-12-11T15:22:05;27.35;;;13.88;;
23068;SDS011;11702;50.856;4.348;2022-12-11T15:24:39;33.35;;;14.02;;
23068;SDS011;11702;50.856;4.348;2022-12-11T15:32:15;25.33;;;11.15;;
23068;SDS011;11702;50.856;4.348;2022-12-11T15:37:32;27.52;;;13.82;;
23068;SDS011;11702;50.856;4.348;2022-12-11T15:40:03;36.13;;;14.18;;
23068;SDS011;11702;50.856;4.348;2022-12-11T15:45:32;25.63;;;13.07;;
23068;SDS011;11702;50.856;4.348;2022-12-11T15:48:34;25.38;;;12.82;;
23068;SDS011;11702;50.856;4.348;2022-12-11T15:51:10;25.13;;;12.50;;
23068;SDS011;11702;50.856;4.348;2022-12-11T15:53:35;25.52;;;13.88;;
23068;SDS011;11702;50.856;4.348;2022-12-11T15:56:02;31.10;;;13.50;;
23068;SDS011;11702;50.856;4.348;2022-12-11T15:58:28;27.55;;;13.80;;
23068;SDS011;11702;50.856;4.348;2022-12-11T16:01:00;27.67;;;14.35;;
23068;SDS011;11702;50.856;4.348;2022-12-11T16:03:26;26.13;;;13.82;;
23068;SDS011;11702;50.856;4.348;2022-12-11T16:05:52;27.10;;;13.25;;
23068;SDS011;11702;50.856;4.348;2022-12-11T16:08:19;27.83;;;13.43;;
23068;SDS011;11702;50.856;4.348;2022-12-11T16:10:47;24.38;;;12.45;;
23068;SDS011;11702;50.856;4.348;2022-12-11T16:13:16;23.73;;;11.88;;
23068;SDS011;11702;50.856;4.348;2022-12-11T16:15:42;21.30;;;11.40;;
23068;SDS011;11702;50.856;4.348;2022-12-11T16:18:11;20.27;;;11.65;;
23068;SDS011;11702;50.856;4.348;2022-12-11T16:20:40;20.60;;;11.40;;